KOWI

Ottawa Municipal Airport

Ottawa, Kansas, USA
METAR KOWI 181430Z AUTO 00000KT 9SM CLR 24/21 A3008 RMK AO2 PWINO
Observed Flight Rules
Aug-18 @ 14:30 UTC (21 minutes ago) Visual Flight Rules
Visibility Clouds
9 miles
  • Clear skies
Temperatures Readings
Current 24°C / 75°F
Dewpoint 21°C / 70°F
Humidity 83%
Altimeter 30.08" Hg
Pressure 1019 hPa
Elevation 292
METAR KOWI 181430Z AUTO 00000KT 9SM CLR 24/21 A3008 RMK AO2 PWINO
Observed Flight Rules
Aug-18 @ 14:30 UTC
(21 minutes ago)
VFR
Clouds
  • Clear skies
Temperature Dewpoint
24°C / 75°F 21°C / 70°F
Humidity Altimeter Pressure
83% 30.08" Hg 1019 hPa